Time;durP1;ratioP1;P1;durP2;ratioP2;P2;SDS_P1;SDS_P2;PMS_P1;PMS_P2;Temp;Humidity;BMP_temperature;BMP_pressure;BME280_temperature;BME280_humidity;BME280_pressure;Samples;Min_cycle;Max_cycle;Signal;HPM_P1;HPM_P2
2022/02/15 00:00:47;;;;;;;3.72;1.60;;;;;;;13.48;40.77;100295.53;4989255;28;20104;-76
2022/02/15 00:03:14;;;;;;;3.75;1.60;;;;;;;13.49;41.03;100297.28;4990277;28;20072;-76
2022/02/15 00:05:41;;;;;;;3.25;1.48;;;;;;;13.49;40.89;100298.13;4990336;28;20614;-76
2022/02/15 00:08:07;;;;;;;6.00;1.63;;;;;;;13.49;41.10;100292.69;4990248;28;20081;-76
2022/02/15 00:10:34;;;;;;;4.05;1.80;;;;;;;13.49;41.06;100298.13;4988987;28;20077;-76
2022/02/15 00:13:02;;;;;;;3.75;1.63;;;;;;;13.49;41.04;100297.28;4990343;28;20053;-76
2022/02/15 00:15:30;;;;;;;5.88;1.73;;;;;;;13.48;41.10;100298.25;4999072;28;20073;-76
2022/02/15 00:17:57;;;;;;;4.60;1.80;;;;;;;13.49;40.77;100303.59;5005144;28;20101;-76
2022/02/15 00:20:23;;;;;;;4.85;1.70;;;;;;;13.48;40.96;100293.69;4992136;28;20493;-76
2022/02/15 00:22:50;;;;;;;4.20;1.58;;;;;;;13.49;40.80;100300.88;4989312;28;20081;-76
2022/02/15 00:25:18;;;;;;;4.65;1.50;;;;;;;13.48;40.95;100298.25;4990805;28;20565;-75
2022/02/15 00:27:45;;;;;;;6.35;1.65;;;;;;;13.48;41.12;100303.72;4985643;28;20620;-76
2022/02/15 00:30:12;;;;;;;4.47;1.50;;;;;;;13.47;40.89;100299.25;4987420;28;20683;-76
2022/02/15 00:32:39;;;;;;;3.45;1.35;;;;;;;13.48;40.76;100306.44;4988658;28;20046;-76
2022/02/15 00:35:05;;;;;;;3.35;1.27;;;;;;;13.47;41.04;100312.91;4984672;28;20137;-76
2022/02/15 00:37:32;;;;;;;4.38;1.38;;;;;;;13.47;40.95;100307.44;4983001;28;20133;-77
2022/02/15 00:39:58;;;;;;;3.42;1.38;;;;;;;13.45;40.99;100320.34;4987009;28;20137;-76
2022/02/15 00:42:25;;;;;;;4.60;1.50;;;;;;;13.45;41.18;100314.88;4989647;28;20395;-76
2022/02/15 00:44:52;;;;;;;3.55;1.40;;;;;;;13.45;41.31;100314.88;4982679;28;20113;-76
2022/02/15 00:47:18;;;;;;;5.70;1.50;;;;;;;13.44;41.05;100311.28;4989988;28;20089;-76
2022/02/15 00:49:45;;;;;;;3.58;1.38;;;;;;;13.45;41.55;100314.88;4983570;28;20446;-76
2022/02/15 00:52:12;;;;;;;5.25;1.90;;;;;;;13.45;41.25;100323.06;4987090;28;20441;-76
2022/02/15 00:54:38;;;;;;;3.83;1.40;;;;;;;13.44;41.33;100319.47;4982417;28;20149;-76
2022/02/15 00:57:05;;;;;;;3.00;1.40;;;;;;;13.45;41.44;100325.78;4983697;28;20462;-76
2022/02/15 00:59:31;;;;;;;4.45;1.60;;;;;;;13.44;41.38;100333.09;4987876;28;20089;-76
2022/02/15 01:01:58;;;;;;;5.20;1.75;;;;;;;13.45;41.48;100331.25;5008036;28;20116;-76
2022/02/15 01:04:24;;;;;;;4.15;1.30;;;;;;;13.45;41.58;100331.25;5008580;28;20054;-76
2022/02/15 01:06:51;;;;;;;3.00;1.33;;;;;;;13.45;41.45;100328.53;5010418;28;20038;-76
2022/02/15 01:09:17;;;;;;;4.25;1.60;;;;;;;13.45;41.71;100333.97;5006964;28;20149;-76
2022/02/15 01:11:44;;;;;;;4.80;1.48;;;;;;;13.46;41.71;100332.97;5013775;28;20264;-76
2022/02/15 01:14:11;;;;;;;3.05;1.50;;;;;;;13.46;41.82;100332.97;5014825;28;20046;-76
2022/02/15 01:16:38;;;;;;;3.95;1.30;;;;;;;13.45;41.71;100334.84;5007234;28;20133;-76
2022/02/15 01:19:05;;;;;;;4.70;1.85;;;;;;;13.46;41.67;100339.31;5008814;28;20077;-76
2022/02/15 01:21:32;;;;;;;4.57;1.70;;;;;;;13.45;41.89;100334.84;5005595;28;20050;-76
2022/02/15 01:23:58;;;;;;;4.35;1.40;;;;;;;13.46;41.82;100338.44;5000864;28;20058;-76
2022/02/15 01:26:25;;;;;;;4.38;1.52;;;;;;;13.47;41.85;100341.03;5007351;28;20045;-76
2022/02/15 01:28:52;;;;;;;4.85;1.70;;;;;;;13.46;41.94;100347.47;5007201;28;20081;-76
2022/02/15 01:31:18;;;;;;;7.10;1.90;;;;;;;13.47;42.10;100345.63;5005280;28;20093;-76
2022/02/15 01:33:45;;;;;;;3.70;1.42;;;;;;;13.47;42.13;100345.63;5009479;28;20128;-76
2022/02/15 01:36:11;;;;;;;4.30;1.60;;;;;;;13.47;42.22;100351.06;5006200;28;20129;-76
2022/02/15 01:38:38;;;;;;;3.70;1.50;;;;;;;13.47;41.98;100346.50;5003037;28;20050;-76
2022/02/15 01:41:06;;;;;;;4.63;1.70;;;;;;;13.48;42.09;100348.22;4989811;28;20387;-76
2022/02/15 01:43:41;;;;;;;4.47;1.48;;;;;;;13.50;42.33;100353.56;4989545;28;20054;-76
2022/02/15 01:46:08;;;;;;;3.63;1.30;;;;;;;13.49;41.79;100351.81;4988068;28;20046;-76
2022/02/15 01:48:36;;;;;;;4.30;1.52;;;;;;;13.51;42.12;100355.25;4988002;28;20054;-76
2022/02/15 01:51:04;;;;;;;3.60;1.50;;;;;;;13.50;42.04;100353.56;5004176;28;20307;-76
2022/02/15 01:53:31;;;;;;;4.60;1.77;;;;;;;13.50;41.92;100348.97;5011181;28;20058;-76
2022/02/15 01:55:58;;;;;;;3.47;1.50;;;;;;;13.51;41.76;100357.97;4994780;28;20070;-76
2022/02/15 01:58:25;;;;;;;5.78;1.80;;;;;;;13.50;41.76;100353.56;4993061;28;20055;-76
2022/02/15 02:00:52;;;;;;;4.22;1.63;;;;;;;13.48;41.74;100350.94;5006009;28;20105;-76
2022/02/15 02:03:19;;;;;;;3.40;1.55;;;;;;;13.47;41.60;100351.94;5012665;28;20054;-76
2022/02/15 02:05:48;;;;;;;3.95;1.70;;;;;;;13.47;41.80;100351.94;5003478;28;20301;-76
2022/02/15 02:08:19;;;;;;;5.07;1.60;;;;;;;13.47;41.71;100357.41;5011026;28;20485;-76
2022/02/15 02:10:47;;;;;;;3.25;1.60;;;;;;;13.46;41.69;100352.06;5003712;28;20065;-76
2022/02/15 02:13:14;;;;;;;5.55;2.00;;;;;;;13.44;41.86;100351.31;5012336;28;20093;-76
2022/02/15 02:15:43;;;;;;;4.20;1.40;;;;;;;13.45;41.69;100361.25;5007030;28;20082;-76
2022/02/15 02:18:11;;;;;;;5.25;1.70;;;;;;;13.42;41.96;100364.25;5011954;28;20133;-76
2022/02/15 02:20:39;;;;;;;3.58;1.70;;;;;;;13.40;42.23;100372.56;5009257;28;20058;-76
2022/02/15 02:23:10;;;;;;;5.40;1.77;;;;;;;13.41;42.33;100365.25;5011809;28;20054;-76
2022/02/15 02:25:37;;;;;;;5.57;1.67;;;;;;;13.39;41.78;100367.25;5003121;28;20136;-75
2022/02/15 02:28:04;;;;;;;3.60;1.60;;;;;;;13.39;42.25;100369.97;5005338;28;20764;-75
2022/02/15 02:30:31;;;;;;;3.75;1.65;;;;;;;13.39;42.18;100369.97;5014512;28;20129;-75
2022/02/15 02:32:57;;;;;;;4.38;1.73;;;;;;;13.38;42.11;100371.81;5011479;28;20485;-75
2022/02/15 02:35:24;;;;;;;4.97;1.95;;;;;;;13.37;42.22;100372.81;5010766;28;20145;-75
2022/02/15 02:37:50;;;;;;;5.72;2.10;;;;;;;13.38;42.38;100377.28;5012301;28;20299;-76
2022/02/15 02:40:17;;;;;;;4.50;2.05;;;;;;;13.37;42.29;100385.59;5010601;28;20081;-76
2022/02/15 02:42:44;;;;;;;5.78;1.90;;;;;;;13.37;42.22;100391.03;5011537;28;20061;-76
2022/02/15 02:45:13;;;;;;;5.72;2.00;;;;;;;13.38;42.19;100390.03;5006451;28;20471;-76
2022/02/15 02:47:44;;;;;;;4.47;1.92;;;;;;;13.39;42.24;100391.78;5010730;28;20088;-76
2022/02/15 02:50:12;;;;;;;5.05;1.92;;;;;;;13.36;42.13;100398.34;5010500;28;20124;-76
2022/02/15 02:52:39;;;;;;;4.57;2.60;;;;;;;13.33;42.22;100396.78;5009925;28;20153;-76
2022/02/15 02:55:07;;;;;;;4.03;1.90;;;;;;;13.32;41.88;100397.75;5001822;28;20161;-75
2022/02/15 02:57:35;;;;;;;4.07;1.90;;;;;;;13.29;42.15;100400.75;4990226;28;20116;-76
2022/02/15 03:00:06;;;;;;;4.57;2.05;;;;;;;13.29;41.89;100397.16;4997938;28;20123;-76
2022/02/15 03:02:32;;;;;;;5.30;2.45;;;;;;;13.26;42.00;100401.00;5001995;28;20536;-75
2022/02/15 03:04:59;;;;;;;4.43;2.35;;;;;;;13.24;42.00;100408.47;5009506;28;20053;-76
2022/02/15 03:07:25;;;;;;;4.68;2.13;;;;;;;13.21;42.34;100414.16;5005679;28;20113;-76
2022/02/15 03:09:52;;;;;;;4.72;2.13;;;;;;;13.20;42.11;100426.06;5008961;28;20077;-75
2022/02/15 03:12:19;;;;;;;5.60;2.40;;;;;;;13.18;42.21;100422.59;5015800;28;20266;-76
2022/02/15 03:14:47;;;;;;;4.63;2.17;;;;;;;13.17;42.48;100420.03;5010735;28;20425;-75
2022/02/15 03:17:16;;;;;;;5.40;2.50;;;;;;;13.17;42.25;100428.19;5010746;28;20394;-75
2022/02/15 03:19:43;;;;;;;5.32;2.88;;;;;;;13.16;42.32;100427.31;5009983;28;20046;-75
2022/02/15 03:22:10;;;;;;;4.45;2.20;;;;;;;13.14;42.55;100425.72;5010813;28;20456;-76
2022/02/15 03:24:37;;;;;;;5.13;2.38;;;;;;;13.12;42.31;100425.81;5009184;28;20095;-75
2022/02/15 03:27:04;;;;;;;6.18;3.05;;;;;;;13.12;42.74;100424.94;5010302;28;20104;-75
2022/02/15 03:29:30;;;;;;;6.72;2.70;;;;;;;13.11;42.54;100425.94;5011548;28;20088;-76
2022/02/15 03:31:57;;;;;;;4.53;2.45;;;;;;;13.09;42.40;100423.34;5013895;28;20113;-76
2022/02/15 03:34:23;;;;;;;4.55;2.70;;;;;;;13.09;42.70;100425.22;5009761;28;20045;-76
2022/02/15 03:36:50;;;;;;;5.50;2.50;;;;;;;13.07;42.41;100422.63;5010200;28;20042;-76
2022/02/15 03:39:17;;;;;;;4.70;2.60;;;;;;;13.08;42.79;100437.09;5008695;28;20112;-76
2022/02/15 03:44:29;;;;;;;4.45;2.67;;;;;;;13.03;42.67;100442.06;5008850;28;20083;-76
2022/02/15 03:46:55;;;;;;;6.10;2.67;;;;;;;13.03;42.88;100442.06;5009255;28;20108;-76
2022/02/15 03:49:22;;;;;;;4.15;2.53;;;;;;;13.02;42.94;100448.50;5009576;28;20077;-76
2022/02/15 03:51:49;;;;;;;6.05;2.88;;;;;;;13.01;42.95;100444.06;5008402;28;20108;-76
2022/02/15 03:54:15;;;;;;;5.05;2.67;;;;;;;13.02;42.80;100448.50;5001902;28;20133;-76
2022/02/15 03:56:42;;;;;;;5.35;2.80;;;;;;;13.01;43.12;100455.84;5007400;28;20094;-76
2022/02/15 03:59:09;;;;;;;5.35;3.10;;;;;;;13.01;43.09;100460.41;5008591;28;20054;-76
2022/02/15 04:01:35;;;;;;;5.50;2.85;;;;;;;13.02;43.01;100462.13;5010460;28;20096;-76
2022/02/15 04:04:05;;;;;;;5.32;2.90;;;;;;;13.02;42.76;100467.56;5009003;28;20141;-76
2022/02/15 04:06:32;;;;;;;5.55;2.80;;;;;;;13.00;43.13;100478.63;5008622;28;20133;-75
2022/02/15 04:08:59;;;;;;;5.13;2.90;;;;;;;13.00;42.90;100473.19;5008380;28;20111;-76
2022/02/15 04:11:27;;;;;;;6.13;3.00;;;;;;;13.01;43.10;100477.63;5008767;28;20115;-76
2022/02/15 04:13:53;;;;;;;6.10;3.17;;;;;;;13.00;42.98;100473.19;5008820;28;20482;-76
2022/02/15 04:16:20;;;;;;;7.43;3.30;;;;;;;12.99;43.04;100476.91;5000555;28;20108;-76
2022/02/15 04:18:48;;;;;;;4.75;2.83;;;;;;;12.98;43.12;100483.34;5008951;28;20742;-76
2022/02/15 04:21:20;;;;;;;6.93;3.50;;;;;;;13.00;43.07;100483.22;5009493;28;20284;-76
2022/02/15 04:23:48;;;;;;;5.43;2.83;;;;;;;12.96;42.66;100488.03;5009192;28;20049;-76
2022/02/15 04:26:16;;;;;;;6.57;3.38;;;;;;;12.98;43.10;100490.63;4996993;28;20058;-76
2022/02/15 04:28:43;;;;;;;5.88;3.15;;;;;;;12.95;43.34;100498.06;5007318;28;20092;-76
2022/02/15 04:31:10;;;;;;;5.85;3.13;;;;;;;12.96;42.83;100493.47;5009060;28;20148;-76
2022/02/15 04:33:36;;;;;;;8.02;3.25;;;;;;;12.95;42.86;100494.47;5008459;28;20137;-76
2022/02/15 04:36:03;;;;;;;9.65;3.45;;;;;;;12.94;43.14;100501.78;5003315;28;20057;-76
2022/02/15 04:38:31;;;;;;;5.57;3.30;;;;;;;12.94;43.36;100501.78;5009335;28;20065;-76
2022/02/15 04:40:58;;;;;;;5.95;3.00;;;;;;;12.93;43.43;100510.94;5008392;28;20058;-76
2022/02/15 04:43:25;;;;;;;6.28;3.60;;;;;;;12.90;43.09;100515.81;5009032;28;20698;-76
2022/02/15 04:45:53;;;;;;;6.30;3.40;;;;;;;12.89;43.26;100509.47;5005080;28;20061;-76
2022/02/15 04:48:20;;;;;;;6.28;3.38;;;;;;;12.88;43.41;100515.91;5015160;28;20045;-76
2022/02/15 04:50:46;;;;;;;5.03;2.92;;;;;;;12.88;43.32;100520.50;5007648;28;20549;-76
2022/02/15 04:53:13;;;;;;;5.85;3.17;;;;;;;12.87;43.81;100526.94;5008511;28;20286;-76
2022/02/15 04:55:40;;;;;;;7.75;3.55;;;;;;;12.85;43.40;100527.06;5003823;28;20095;-76
2022/02/15 04:58:07;;;;;;;5.97;3.40;;;;;;;12.85;43.28;100537.09;5008018;28;20045;-76
2022/02/15 05:00:34;;;;;;;7.35;3.40;;;;;;;12.84;43.40;100538.97;5017179;28;20140;-76
2022/02/15 05:03:01;;;;;;;5.43;2.95;;;;;;;12.82;43.42;100546.41;5000318;28;20104;-76
2022/02/15 05:05:27;;;;;;;6.80;3.10;;;;;;;12.81;43.24;100547.38;5008243;28;20504;-76
2022/02/15 05:07:54;;;;;;;4.72;3.28;;;;;;;12.80;43.28;100544.78;5007194;28;20128;-76
2022/02/15 05:10:20;;;;;;;5.45;3.28;;;;;;;12.79;43.37;100549.34;5008043;28;20141;-76
2022/02/15 05:12:47;;;;;;;6.95;3.92;;;;;;;12.76;43.47;100538.72;5008760;28;20081;-76
2022/02/15 05:15:13;;;;;;;6.90;3.40;;;;;;;12.77;43.44;100548.59;5005313;28;20050;-76
2022/02/15 05:17:43;;;;;;;8.20;3.28;;;;;;;12.77;43.31;100547.75;5010168;28;20082;-76
2022/02/15 05:20:16;;;;;;;7.03;3.53;;;;;;;12.77;43.75;100536.84;5008076;28;20124;-76
2022/02/15 05:22:45;;;;;;;5.25;3.40;;;;;;;12.72;43.61;100553.56;5009977;28;20111;-76
2022/02/15 05:25:13;;;;;;;7.97;3.50;;;;;;;12.71;43.55;100554.56;5007119;28;20088;-75
2022/02/15 05:27:41;;;;;;;6.22;3.70;;;;;;;12.71;43.86;100559.13;5001536;28;20054;-76
2022/02/15 05:30:08;;;;;;;6.03;3.60;;;;;;;12.70;44.03;100555.53;5006490;28;20516;-76
2022/02/15 05:32:34;;;;;;;7.50;3.58;;;;;;;12.69;43.95;100556.53;4992957;28;20081;-76
2022/02/15 05:35:04;;;;;;;6.63;3.95;;;;;;;12.69;43.87;100561.09;4991470;28;20064;-76
2022/02/15 05:37:30;;;;;;;5.80;3.65;;;;;;;12.69;43.83;100561.97;4993702;28;20049;-76
2022/02/15 05:39:57;;;;;;;8.25;4.00;;;;;;;12.69;43.98;100561.97;4998716;28;20060;-76
2022/02/15 05:42:23;;;;;;;7.20;4.28;;;;;;;12.72;43.65;100566.31;5012424;28;20124;-76
2022/02/15 05:44:50;;;;;;;7.60;3.90;;;;;;;12.70;44.27;100577.34;5004059;28;20105;-76
2022/02/15 05:47:17;;;;;;;7.22;4.20;;;;;;;12.72;43.98;100577.22;4988319;28;20133;-76
2022/02/15 05:52:28;;;;;;;8.73;4.15;;;;;;;12.71;44.21;100579.06;5012702;28;20046;-76
2022/02/15 05:54:55;;;;;;;8.38;4.40;;;;;;;12.71;43.86;100572.75;5005887;28;20573;-76
2022/02/15 05:57:22;;;;;;;6.90;4.13;;;;;;;12.71;44.03;100568.19;4992547;28;20123;-75
2022/02/15 05:59:48;;;;;;;7.53;4.30;;;;;;;12.70;43.99;100558.25;4996991;28;20563;-75
2022/02/15 06:02:15;;;;;;;6.47;3.97;;;;;;;12.71;43.85;100570.03;5009315;28;20060;-75
2022/02/15 06:04:42;;;;;;;7.40;4.20;;;;;;;12.70;43.75;100571.88;5007300;28;20132;-75
2022/02/15 06:07:09;;;;;;;9.80;4.28;;;;;;;12.70;43.87;100581.91;5008094;28;20456;-75
2022/02/15 06:09:36;;;;;;;5.90;3.80;;;;;;;12.68;43.94;100583.91;5010085;28;20061;-75
2022/02/15 06:12:03;;;;;;;6.07;3.65;;;;;;;12.65;43.68;100584.16;5005627;28;20085;-75
2022/02/15 06:14:29;;;;;;;6.68;3.63;;;;;;;12.63;43.88;100588.84;5007824;28;20053;-74
2022/02/15 06:16:56;;;;;;;6.85;3.58;;;;;;;12.61;43.99;100585.38;5010608;28;20088;-74
2022/02/15 06:19:22;;;;;;;5.80;3.53;;;;;;;12.60;44.04;100586.38;5010013;28;20077;-75
2022/02/15 06:21:49;;;;;;;5.45;3.65;;;;;;;12.60;44.24;100592.66;5011818;28;20107;-76
2022/02/15 06:24:17;;;;;;;7.00;3.60;;;;;;;12.58;44.36;100600.97;4998993;28;20050;-75
2022/02/15 06:27:02;;;;;;;7.57;3.40;;;;;;;12.56;44.04;100605.69;5010136;28;20076;-75
2022/02/15 06:29:33;;;;;;;7.18;3.42;;;;;;;12.58;44.43;100614.59;5015080;28;20065;-75
2022/02/15 06:32:01;;;;;;;6.57;4.03;;;;;;;12.56;44.09;100616.56;5011460;28;20481;-75
2022/02/15 06:34:28;;;;;;;6.63;4.20;;;;;;;12.55;44.02;100619.41;5011946;28;20058;-74
2022/02/15 06:36:54;;;;;;;6.60;3.80;;;;;;;12.54;43.88;100620.41;5010416;28;20054;-75
2022/02/15 06:39:21;;;;;;;6.40;3.53;;;;;;;12.55;44.20;100623.00;5010320;28;20153;-74
2022/02/15 06:41:48;;;;;;;6.03;3.33;;;;;;;12.53;44.10;100619.53;5011904;28;20046;-74
2022/02/15 06:44:15;;;;;;;5.60;3.20;;;;;;;12.53;44.06;100622.25;5011718;28;20116;-75
2022/02/15 06:46:42;;;;;;;7.00;3.25;;;;;;;12.52;44.24;100630.53;5009890;28;20449;-74
2022/02/15 06:49:08;;;;;;;6.30;3.38;;;;;;;12.51;44.13;100634.28;5009306;28;20133;-74
2022/02/15 06:51:35;;;;;;;7.30;3.40;;;;;;;12.51;43.97;100632.41;5007388;28;20053;-74
2022/02/15 06:54:02;;;;;;;6.85;3.80;;;;;;;12.50;44.19;100637.97;5010400;28;20505;-74
2022/02/15 06:56:28;;;;;;;6.40;3.22;;;;;;;12.50;44.31;100649.75;5011242;28;20137;-74
2022/02/15 06:58:56;;;;;;;6.43;3.45;;;;;;;12.50;44.30;100649.75;5016317;28;20053;-74
2022/02/15 07:01:22;;;;;;;5.55;3.55;;;;;;;12.49;44.14;100650.72;5009103;28;20053;-74
2022/02/15 07:03:49;;;;;;;6.97;3.90;;;;;;;12.48;44.47;100657.16;5011265;28;20132;-74
2022/02/15 07:06:19;;;;;;;6.15;3.45;;;;;;;12.49;44.07;100652.56;5008900;28;20065;-74
2022/02/15 07:08:45;;;;;;;6.43;4.07;;;;;;;12.47;44.41;100646.38;5010068;28;20128;-75
2022/02/15 07:11:12;;;;;;;5.13;3.63;;;;;;;12.46;44.28;100663.69;5008182;28;20116;-74
2022/02/15 07:13:39;;;;;;;6.75;3.63;;;;;;;12.45;44.59;100668.28;5008492;28;20081;-76
2022/02/15 07:16:06;;;;;;;7.15;4.57;;;;;;;12.45;44.51;100662.81;5005079;28;20323;-75
2022/02/15 07:18:32;;;;;;;6.75;3.88;;;;;;;12.45;44.48;100676.44;5006910;28;20125;-75
2022/02/15 07:20:59;;;;;;;6.75;4.00;;;;;;;12.45;44.51;100676.44;5004015;28;20062;-76
2022/02/15 07:23:26;;;;;;;6.18;4.00;;;;;;;12.44;44.59;100677.41;5013100;28;20479;-75
2022/02/15 07:25:53;;;;;;;6.38;4.22;;;;;;;12.45;44.64;100683.75;5012055;28;20120;-75
2022/02/15 07:28:19;;;;;;;6.35;3.80;;;;;;;12.46;44.79;100688.19;5014704;28;20131;-75
2022/02/15 07:30:46;;;;;;;7.78;3.75;;;;;;;12.45;44.82;100691.91;4999516;28;20148;-75
2022/02/15 07:33:12;;;;;;;6.55;4.05;;;;;;;12.46;44.91;100699.09;4989836;28;20084;-75
2022/02/15 07:35:39;;;;;;;7.85;4.38;;;;;;;12.46;44.97;100699.97;4988966;28;20462;-75
2022/02/15 07:38:06;;;;;;;7.93;4.38;;;;;;;12.47;44.85;100695.38;4990836;28;20109;-75
2022/02/15 07:40:32;;;;;;;7.28;4.43;;;;;;;12.48;44.73;100703.44;4989490;28;20506;-75
2022/02/15 07:42:59;;;;;;;9.40;4.25;;;;;;;12.48;44.94;100703.44;4991058;28;20082;-75
2022/02/15 07:45:26;;;;;;;7.22;4.53;;;;;;;12.50;44.84;100706.06;4998819;28;20050;-75
2022/02/15 07:47:53;;;;;;;7.75;4.30;;;;;;;12.50;44.90;100709.66;5009211;28;20074;-75
2022/02/15 07:50:22;;;;;;;6.28;4.10;;;;;;;12.52;45.06;100706.78;5009137;28;20050;-75
2022/02/15 07:52:50;;;;;;;7.07;4.55;;;;;;;12.51;45.14;100711.38;5009184;28;20045;-75
2022/02/15 07:55:18;;;;;;;7.93;4.95;;;;;;;12.55;44.95;100717.44;5006821;28;20536;-75
2022/02/15 07:57:45;;;;;;;7.38;4.97;;;;;;;12.54;44.93;100722.03;5009062;28;20093;-75
2022/02/15 08:00:18;;;;;;;11.55;4.90;;;;;;;12.56;45.11;100720.06;5009262;28;20108;-75
2022/02/15 08:02:46;;;;;;;8.10;4.75;;;;;;;12.56;45.06;100721.91;5010088;28;20543;-75
2022/02/15 08:05:12;;;;;;;10.73;5.82;;;;;;;12.58;44.80;100728.13;5006971;28;20100;-75
2022/02/15 08:07:56;;;;;;;7.70;5.13;;;;;;;12.58;45.28;100729.00;5009363;28;20492;-75
2022/02/15 08:10:24;;;;;;;10.75;5.90;;;;;;;12.57;44.85;100734.53;5006588;28;20046;-75
2022/02/15 08:12:55;;;;;;;9.70;5.93;;;;;;;12.57;44.96;100740.00;5000907;28;20058;-76
2022/02/15 08:15:28;;;;;;;8.60;5.20;;;;;;;12.54;45.12;100738.38;5007516;28;20143;-76
2022/02/15 08:17:55;;;;;;;10.80;6.07;;;;;;;12.53;44.77;100742.06;5009922;28;20200;-76
2022/02/15 08:20:28;;;;;;;10.68;5.97;;;;;;;12.53;45.01;100743.91;5006312;28;20053;-75
2022/02/15 08:22:55;;;;;;;8.82;5.53;;;;;;;12.52;44.94;100742.19;5006410;28;20061;-75
2022/02/15 08:25:21;;;;;;;11.88;6.10;;;;;;;12.50;45.01;100738.72;5010022;28;20370;-75
2022/02/15 08:27:48;;;;;;;10.10;5.90;;;;;;;12.49;45.02;100747.88;5009160;28;20553;-76
2022/02/15 08:30:16;;;;;;;12.18;6.47;;;;;;;12.49;45.04;100753.34;5008410;28;20737;-75
2022/02/15 08:32:43;;;;;;;9.18;5.63;;;;;;;12.47;45.14;100760.75;5009830;28;20564;-75
2022/02/15 08:35:14;;;;;;;9.55;5.72;;;;;;;12.45;45.34;100751.81;5005988;28;20085;-75
2022/02/15 08:37:41;;;;;;;10.77;5.78;;;;;;;12.44;45.20;100755.50;5015197;28;20400;-76
2022/02/15 08:40:09;;;;;;;10.75;5.95;;;;;;;12.44;45.51;100761.84;5000597;28;20049;-76
2022/02/15 08:42:39;;;;;;;9.38;5.97;;;;;;;12.44;45.14;100759.09;5009212;28;20536;-76
2022/02/15 08:45:09;;;;;;;9.20;6.53;;;;;;;12.44;45.46;100761.84;5000837;28;20061;-75
2022/02/15 08:47:36;;;;;;;10.73;5.90;;;;;;;12.43;45.38;100765.56;5008821;28;20100;-75
2022/02/15 08:50:04;;;;;;;10.38;6.40;;;;;;;12.42;45.43;100766.56;5008114;28;20084;-75
2022/02/15 08:52:31;;;;;;;10.50;5.88;;;;;;;12.41;45.33;100764.81;5008633;28;20449;-75
2022/02/15 08:54:58;;;;;;;11.35;6.00;;;;;;;12.41;45.84;100767.53;4987708;28;20160;-76
2022/02/15 08:57:24;;;;;;;11.80;6.30;;;;;;;12.43;45.47;100770.16;5012962;28;20089;-75
2022/02/15 08:59:53;;;;;;;12.48;6.60;;;;;;;12.43;45.35;100773.75;5006833;28;20563;-75
2022/02/15 09:02:24;;;;;;;7.47;5.93;;;;;;;12.47;45.50;100768.91;5007693;28;20056;-76
2022/02/15 09:04:51;;;;;;;10.65;6.13;;;;;;;12.43;45.57;100772.88;4997113;28;20099;-75
2022/02/15 09:07:18;;;;;;;9.68;5.72;;;;;;;12.41;45.27;100772.97;5009084;28;21499;-75
2022/02/15 09:09:45;;;;;;;8.90;5.43;;;;;;;12.41;45.80;100786.59;5007528;28;20054;-75
2022/02/15 09:12:12;;;;;;;7.85;5.20;;;;;;;12.41;45.64;100783.88;5012418;28;20056;-75
2022/02/15 09:14:39;;;;;;;7.75;5.32;;;;;;;12.43;45.55;100789.22;5009649;28;20073;-76
2022/02/15 09:17:05;;;;;;;10.35;5.50;;;;;;;12.45;45.85;100781.75;5005813;28;20050;-76
2022/02/15 09:19:33;;;;;;;6.82;4.65;;;;;;;12.46;45.41;100787.09;5007637;28;20099;-75
2022/02/15 09:22:00;;;;;;;8.70;4.85;;;;;;;12.47;45.33;100794.28;5008537;28;20050;-76
2022/02/15 09:24:27;;;;;;;7.13;4.72;;;;;;;12.49;45.33;100802.34;5007143;28;20140;-75
2022/02/15 09:26:56;;;;;;;7.13;5.13;;;;;;;12.51;45.10;100794.94;5008493;28;20112;-75
2022/02/15 09:29:22;;;;;;;7.75;4.97;;;;;;;12.52;45.22;100804.81;5006677;28;20124;-75
2022/02/15 09:31:49;;;;;;;7.72;4.60;;;;;;;12.51;45.49;100803.97;5008387;28;20590;-76
2022/02/15 09:34:22;;;;;;;8.05;4.78;;;;;;;12.52;45.68;100796.66;5007456;28;20077;-76
2022/02/15 09:36:52;;;;;;;6.22;4.45;;;;;;;12.55;45.34;100800.03;5006499;28;20053;-75
2022/02/15 09:39:18;;;;;;;7.85;4.60;;;;;;;12.56;45.13;100811.78;5007384;28;20081;-76
2022/02/15 09:41:47;;;;;;;7.03;4.82;;;;;;;12.57;44.99;100805.34;5008271;28;20085;-75
2022/02/15 09:44:14;;;;;;;6.78;4.40;;;;;;;12.56;45.23;100828.13;5006152;28;20089;-75
2022/02/15 09:46:44;;;;;;;6.32;4.00;;;;;;;12.54;45.21;100816.47;5007559;28;20045;-76
2022/02/15 09:49:48;;;;;;;6.30;4.63;;;;;;;12.54;45.26;100821.91;5006862;28;20049;-76
2022/02/15 09:52:00;;;;;;;7.75;4.72;;;;;;;12.55;44.86;100820.94;5008404;28;20054;-75
2022/02/15 09:54:28;;;;;;;6.07;4.40;;;;;;;12.54;45.12;100816.47;5005751;28;20058;-76
2022/02/15 09:56:57;;;;;;;7.30;4.18;;;;;;;12.54;45.38;100821.91;5007881;28;20568;-75
2022/02/15 09:59:25;;;;;;;6.63;4.43;;;;;;;12.54;45.23;100821.91;5007504;28;20552;-76
2022/02/15 10:01:53;;;;;;;7.18;4.50;;;;;;;12.54;45.33;100819.19;5008610;28;20077;-76
2022/02/15 10:04:34;;;;;;;7.47;4.72;;;;;;;12.57;45.08;100816.25;5012626;28;20054;-76
2022/02/15 10:07:03;;;;;;;6.85;4.55;;;;;;;12.53;45.60;100817.44;5008279;28;20050;-75
2022/02/15 10:09:30;;;;;;;7.40;5.40;;;;;;;12.55;45.08;100827.25;4995949;28;20516;-75
2022/02/15 10:12:06;;;;;;;8.85;5.03;;;;;;;12.57;45.18;100817.13;5009058;28;20057;-75
2022/02/15 10:14:38;;;;;;;7.15;5.00;;;;;;;12.57;45.17;100827.16;5009525;28;20061;-75
2022/02/15 10:17:09;;;;;;;7.97;5.13;;;;;;;12.56;45.18;100834.44;5009306;28;20073;-75
2022/02/15 10:19:36;;;;;;;7.13;4.38;;;;;;;12.56;45.54;100834.44;5006024;28;20056;-76
2022/02/15 10:22:04;;;;;;;9.02;5.63;;;;;;;12.60;45.23;100845.13;5011233;28;20065;-76
2022/02/15 10:24:34;;;;;;;8.60;5.00;;;;;;;12.60;45.25;100845.13;5010070;28;20563;-75
2022/02/15 10:27:06;;;;;;;7.93;4.97;;;;;;;12.60;45.39;100845.97;5009844;28;20057;-76
2022/02/15 10:29:35;;;;;;;7.55;5.50;;;;;;;12.58;45.07;100850.69;5010300;28;20054;-76
2022/02/15 10:32:04;;;;;;;8.45;5.10;;;;;;;12.61;45.10;100846.81;5009573;28;20081;-75
2022/02/15 10:34:32;;;;;;;8.68;6.03;;;;;;;12.58;45.19;100853.41;5010505;28;20073;-75
2022/02/15 10:37:03;;;;;;;7.03;4.88;;;;;;;12.58;44.99;100848.81;5010727;28;20530;-75
2022/02/15 10:40:06;;;;;;;7.63;4.60;;;;;;;12.62;45.18;100854.03;5010522;28;20116;-77
2022/02/15 10:42:34;;;;;;;7.40;5.20;;;;;;;12.57;45.07;100852.53;4998039;28;20451;-75
2022/02/15 10:45:03;;;;;;;9.68;5.00;;;;;;;12.62;44.96;100854.88;5008488;28;20050;-76
2022/02/15 10:47:36;;;;;;;9.18;5.20;;;;;;;12.65;45.00;100859.25;5010743;28;20617;-75
2022/02/15 10:50:11;;;;;;;7.30;4.85;;;;;;;12.64;45.08;100861.09;5003198;28;20527;-75
2022/02/15 10:52:39;;;;;;;9.60;5.15;;;;;;;12.64;45.08;100852.94;5007158;28;20074;-75
2022/02/15 10:55:07;;;;;;;7.55;4.32;;;;;;;12.66;44.92;100861.00;5016080;28;20133;-75
2022/02/15 10:57:35;;;;;;;6.60;4.30;;;;;;;12.67;44.64;100866.31;5012898;28;20104;-75
2022/02/15 11:00:07;;;;;;;6.57;4.32;;;;;;;12.70;44.85;100873.38;5011709;28;20577;-76
2022/02/15 11:02:38;;;;;;;5.75;3.65;;;;;;;12.68;45.00;100869.94;5012610;28;20092;-75
2022/02/15 11:05:07;;;;;;;7.32;4.40;;;;;;;12.71;44.67;100862.38;5010121;28;20053;-75
2022/02/15 11:07:36;;;;;;;7.40;4.03;;;;;;;12.73;44.69;100870.44;5010914;28;20049;-75
2022/02/15 11:10:08;;;;;;;5.32;3.78;;;;;;;12.74;44.37;100874.91;5009882;28;20045;-75
2022/02/15 11:12:59;;;;;;;6.72;3.42;;;;;;;12.71;44.42;100865.09;5011192;28;20084;-75
2022/02/15 11:15:34;;;;;;;6.18;3.40;;;;;;;12.78;44.04;100873.66;4998937;28;20777;-75
2022/02/15 11:18:05;;;;;;;5.20;2.85;;;;;;;12.78;44.32;100862.78;5008476;28;20517;-76
2022/02/15 11:20:56;;;;;;;7.13;3.10;;;;;;;12.78;43.68;100852.75;5006949;28;20504;-76
2022/02/15 11:23:35;;;;;;;5.53;2.63;;;;;;;12.75;44.09;100854.84;5003237;28;20134;-75
2022/02/15 11:26:10;;;;;;;4.55;3.05;;;;;;;12.76;43.91;100856.59;5008280;28;20057;-76
2022/02/15 11:28:46;;;;;;;4.47;2.80;;;;;;;12.77;43.71;100836.50;5010265;28;20047;-75
2022/02/15 11:31:43;;;;;;;4.95;2.80;;;;;;;12.77;43.25;100840.09;5009695;28;20472;-75
2022/02/15 11:34:12;;;;;;;4.13;2.30;;;;;;;12.74;43.70;100831.31;4999545;28;20046;-75